Time;durP1;ratioP1;P1;durP2;ratioP2;P2;SDS_P1;SDS_P2;PMS_P1;PMS_P2;Temp;Humidity;BMP_temperature;BMP_pressure;BME280_temperature;BME280_humidity;BME280_pressure;Samples;Min_cycle;Max_cycle;Signal;HPM_P1;HPM_P2
2021/04/21 04:00:41;;;;;;;5.20;4.70;;;4.40;99.90;;;;;;5794434;23;20359;-70
2021/04/21 04:03:09;;;;;;;4.80;4.40;;;4.40;99.90;;;;;;4911838;29;20682;-71
2021/04/21 04:05:43;;;;;;;6.25;4.95;;;4.40;99.90;;;;;;4916267;29;20629;-71
2021/04/21 04:08:13;;;;;;;5.28;4.90;;;4.40;99.90;;;;;;4900932;29;20238;-71
2021/04/21 04:10:49;;;;;;;5.80;5.38;;;4.40;99.90;;;;;;4900602;29;20710;-71
2021/04/21 04:13:17;;;;;;;5.07;4.55;;;4.40;99.90;;;;;;4914896;29;20954;-71
2021/04/21 04:15:47;;;;;;;5.47;5.00;;;4.40;99.90;;;;;;4911466;29;20510;-71
2021/04/21 04:18:14;;;;;;;7.03;5.55;;;4.40;99.90;;;;;;4898107;29;20274;-71
2021/04/21 04:20:42;;;;;;;5.07;4.78;;;4.40;99.90;;;;;;4900232;29;20640;-70
2021/04/21 04:23:10;;;;;;;6.53;5.93;;;4.40;99.90;;;;;;4896782;29;20643;-71
2021/04/21 04:25:39;;;;;;;7.97;4.80;;;4.40;99.90;;;;;;4911518;29;20227;-70
2021/04/21 04:28:07;;;;;;;5.90;5.45;;;4.40;99.90;;;;;;4916275;29;20541;-71
2021/04/21 04:30:33;;;;;;;6.10;5.53;;;4.50;99.90;;;;;;4903272;29;20227;-71
2021/04/21 04:33:01;;;;;;;5.93;5.45;;;4.50;99.90;;;;;;4897154;29;20219;-72
2021/04/21 04:35:27;;;;;;;8.48;6.07;;;4.50;99.90;;;;;;4908362;29;20206;-71
2021/04/21 04:37:58;;;;;;;6.03;5.55;;;4.50;99.90;;;;;;4909022;29;20223;-71
2021/04/21 04:40:25;;;;;;;5.25;4.80;;;4.60;99.90;;;;;;4908626;29;20236;-71
2021/04/21 04:42:52;;;;;;;6.72;5.00;;;4.60;99.90;;;;;;4915539;29;20266;-71
2021/04/21 04:45:20;;;;;;;5.72;5.20;;;4.70;99.90;;;;;;4897751;29;20199;-72
2021/04/21 04:47:50;;;;;;;6.63;6.03;;;4.90;99.90;;;;;;4897189;29;20590;-71
2021/04/21 04:50:19;;;;;;;5.88;5.38;;;5.30;99.90;;;;;;4911911;29;20207;-72
2021/04/21 04:52:47;;;;;;;5.93;5.45;;;5.80;99.90;;;;;;4897487;29;20319;-72
2021/04/21 04:55:15;;;;;;;7.90;5.43;;;6.30;99.90;;;;;;4909082;29;20213;-72
2021/04/21 04:57:45;;;;;;;6.65;5.05;;;6.80;99.90;;;;;;4915653;29;20214;-72
2021/04/21 05:00:14;;;;;;;6.72;6.22;;;7.10;99.90;;;;;;4900172;29;20207;-71
2021/04/21 05:02:42;;;;;;;5.57;5.13;;;7.30;99.90;;;;;;4896770;29;20230;-72
2021/04/21 05:05:10;;;;;;;4.50;4.20;;;7.40;99.90;;;;;;4910845;29;20210;-70
2021/04/21 05:07:42;;;;;;;5.95;5.45;;;7.60;99.90;;;;;;4910416;29;20214;-71
2021/04/21 05:10:16;;;;;;;6.25;5.75;;;7.60;99.90;;;;;;4909529;29;20243;-71
2021/04/21 05:12:44;;;;;;;7.05;5.80;;;7.60;99.90;;;;;;4903286;29;20564;-70
2021/04/21 05:15:45;;;;;;;6.47;5.90;;;7.60;99.90;;;;;;4915073;29;20203;-69
2021/04/21 05:19:09;;;;;;;7.00;6.45;;;7.70;99.90;;;;;;4903870;29;20206;-71
2021/04/21 05:22:25;;;;;;;8.85;7.97;;;7.70;99.90;;;;;;4910985;29;20230;-70
2021/04/21 05:25:27;;;;;;;7.97;7.28;;;7.80;99.90;;;;;;4897408;29;20266;-70
2021/04/21 05:28:29;;;;;;;8.80;7.88;;;7.90;99.90;;;;;;4897679;29;20270;-72
2021/04/21 05:31:14;;;;;;;7.63;7.00;;;8.00;99.90;;;;;;4898335;29;20234;-71
2021/04/21 05:34:17;;;;;;;7.15;6.55;;;8.00;99.90;;;;;;4908199;29;20202;-72
2021/04/21 05:37:17;;;;;;;5.60;5.25;;;8.10;99.90;;;;;;4914501;29;20206;-72
2021/04/21 05:40:26;;;;;;;6.60;6.10;;;8.40;99.90;;;;;;4896589;29;20211;-72
2021/04/21 05:43:43;;;;;;;6.50;5.93;;;8.60;99.90;;;;;;4909189;29;20203;-72
2021/04/21 05:46:45;;;;;;;7.30;6.70;;;8.60;99.90;;;;;;4896227;29;20227;-71
2021/04/21 05:49:30;;;;;;;6.88;6.38;;;8.70;99.90;;;;;;4908959;29;20231;-74
2021/04/21 05:52:14;;;;;;;7.68;7.07;;;8.80;99.90;;;;;;4895723;29;20233;-69
2021/04/21 05:55:20;;;;;;;7.43;6.13;;;9.00;99.90;;;;;;4912170;29;20214;-72
2021/04/21 05:58:28;;;;;;;6.68;6.07;;;9.20;99.90;;;;;;4900458;29;20532;-72
2021/04/21 06:01:27;;;;;;;12.15;10.73;;;9.50;99.90;;;;;;4900779;29;20559;-71
2021/04/21 06:03:55;;;;;;;21.88;15.48;;;10.00;99.90;;;;;;4895970;29;20211;-73
2021/04/21 06:06:22;;;;;;;74.17;64.53;;;10.50;99.90;;;;;;4904886;29;20226;-71
2021/04/21 06:08:48;;;;;;;17.83;16.17;;;11.10;99.90;;;;;;4897662;29;20852;-71
2021/04/21 06:11:23;;;;;;;19.67;17.87;;;11.60;99.90;;;;;;4910913;29;20486;-72
2021/04/21 06:13:52;;;;;;;16.80;15.20;;;12.10;99.90;;;;;;4896986;29;20488;-72
2021/04/21 06:16:19;;;;;;;10.30;9.37;;;12.60;99.90;;;;;;4912984;29;20463;-73
2021/04/21 06:18:51;;;;;;;53.87;39.60;;;13.10;99.90;;;;;;4914178;29;20474;-72
2021/04/21 06:21:19;;;;;;;20.40;14.47;;;13.60;99.90;;;;;;4913635;29;20486;-73
2021/04/21 06:23:46;;;;;;;27.17;21.10;;;13.90;99.90;;;;;;4895412;29;20472;-73
2021/04/21 06:26:19;;;;;;;16.90;15.20;;;14.20;99.90;;;;;;4905980;29;21010;-73
2021/04/21 06:28:56;;;;;;;7.87;7.27;;;14.80;99.90;;;;;;4914233;29;20475;-71
2021/04/21 06:31:32;;;;;;;8.40;7.70;;;15.30;99.90;;;;;;4902866;29;20949;-70
2021/04/21 06:33:59;;;;;;;8.37;7.57;;;15.50;99.90;;;;;;4897813;29;20925;-71
2021/04/21 06:36:32;;;;;;;7.77;7.30;;;15.90;99.90;;;;;;4910132;29;20569;-71
2021/04/21 06:38:58;;;;;;;8.20;7.47;;;16.20;99.00;;;;;;4918048;29;20546;-70
2021/04/21 06:41:24;;;;;;;7.70;7.10;;;16.40;97.50;;;;;;4912978;29;20486;-71
2021/04/21 06:43:51;;;;;;;8.20;7.50;;;16.50;96.40;;;;;;4911622;29;20471;-73
2021/04/21 06:46:18;;;;;;;10.57;9.70;;;16.40;96.40;;;;;;4908522;29;20836;-73
2021/04/21 06:48:45;;;;;;;8.37;7.80;;;16.30;96.90;;;;;;4909178;29;20473;-73
2021/04/21 06:51:14;;;;;;;11.30;10.27;;;16.30;96.60;;;;;;4910093;29;20483;-73
2021/04/21 06:53:41;;;;;;;10.90;10.03;;;16.30;96.00;;;;;;4898362;29;20470;-74
2021/04/21 06:56:08;;;;;;;7.60;7.00;;;16.10;96.50;;;;;;4916379;29;20458;-74
2021/04/21 06:58:35;;;;;;;8.30;7.70;;;16.00;96.80;;;;;;4902228;29;20460;-71
2021/04/21 07:01:08;;;;;;;9.33;8.60;;;15.90;97.20;;;;;;4900659;29;20552;-71
2021/04/21 07:03:34;;;;;;;9.17;8.47;;;15.80;97.20;;;;;;4903127;29;20464;-71
2021/04/21 07:06:00;;;;;;;9.10;8.50;;;15.70;97.30;;;;;;4911476;29;20541;-71
2021/04/21 07:08:32;;;;;;;8.50;7.90;;;15.60;97.50;;;;;;4917373;29;20819;-70
2021/04/21 07:10:59;;;;;;;8.63;7.93;;;15.10;98.30;;;;;;4917050;29;20482;-71
2021/04/21 07:13:27;;;;;;;9.53;8.60;;;14.50;99.50;;;;;;4915318;29;20832;-70
2021/04/21 07:15:55;;;;;;;9.53;8.83;;;13.90;99.90;;;;;;4900274;29;20475;-72
2021/04/21 07:18:27;;;;;;;9.63;8.57;;;13.70;99.90;;;;;;4900030;29;20960;-70
2021/04/21 07:20:55;;;;;;;10.10;9.30;;;13.90;99.90;;;;;;4907215;29;20850;-72
2021/04/21 07:23:23;;;;;;;10.87;9.33;;;14.20;99.90;;;;;;4899493;29;20471;-71
2021/04/21 07:25:51;;;;;;;10.37;9.57;;;14.20;99.90;;;;;;4920011;29;20524;-70
2021/04/21 07:28:20;;;;;;;10.10;9.30;;;14.10;99.90;;;;;;4924859;29;20469;-71
2021/04/21 07:30:46;;;;;;;11.33;10.07;;;13.90;99.90;;;;;;4916482;29;20483;-71
2021/04/21 07:33:13;;;;;;;9.57;8.80;;;13.80;99.90;;;;;;4925788;29;20469;-71
2021/04/21 07:35:39;;;;;;;11.07;9.90;;;13.60;99.90;;;;;;4918147;29;20466;-71
2021/04/21 07:38:17;;;;;;;11.20;10.20;;;13.70;99.90;;;;;;4923991;29;20469;-72
2021/04/21 07:40:51;;;;;;;10.80;9.80;;;13.70;99.90;;;;;;4907010;29;20506;-71
2021/04/21 07:43:19;;;;;;;10.20;9.20;;;13.60;99.90;;;;;;4899872;29;20467;-71
2021/04/21 07:45:52;;;;;;;11.57;10.47;;;13.30;99.90;;;;;;4912433;29;20486;-72
2021/04/21 07:48:52;;;;;;;9.87;9.00;;;13.20;99.90;;;;;;4916534;29;20815;-72
2021/04/21 07:51:38;;;;;;;9.73;8.83;;;12.90;99.90;;;;;;4913917;29;20509;-72
2021/04/21 07:54:09;;;;;;;11.85;9.50;;;12.70;99.90;;;;;;4917439;29;20505;-72
2021/04/21 07:56:37;;;;;;;11.27;10.07;;;12.60;99.90;;;;;;4898512;29;20306;-72
2021/04/21 07:59:15;;;;;;;9.70;8.90;;;12.50;99.90;;;;;;4899255;29;20557;-72
2021/04/21 08:01:41;;;;;;;9.70;8.82;;;12.50;99.90;;;;;;4898697;29;20270;-72
2021/04/21 08:04:19;;;;;;;9.10;8.38;;;12.50;99.90;;;;;;4900068;29;20223;-72
2021/04/21 08:06:48;;;;;;;9.02;8.13;;;12.50;99.90;;;;;;4898765;29;20298;-71
2021/04/21 08:09:14;;;;;;;9.75;8.43;;;12.60;99.90;;;;;;4898523;29;20684;-72
2021/04/21 08:11:40;;;;;;;10.35;8.60;;;12.60;99.90;;;;;;4899189;29;20958;-72
2021/04/21 08:14:06;;;;;;;9.50;8.32;;;12.70;99.90;;;;;;4918880;29;20218;-71
2021/04/21 08:16:35;;;;;;;10.32;9.30;;;12.70;99.90;;;;;;4918863;29;20682;-76
2021/04/21 08:19:16;;;;;;;10.18;9.25;;;12.70;99.90;;;;;;4916858;29;20598;-74
2021/04/21 08:21:45;;;;;;;7.65;7.00;;;12.80;99.90;;;;;;4905368;29;20234;-74
2021/04/21 08:24:14;;;;;;;7.43;6.72;;;12.80;97.40;;;;;;4897263;29;20215;-74
2021/04/21 08:26:42;;;;;;;7.47;6.88;;;12.90;96.90;;;;;;4898122;29;20230;-74
2021/04/21 08:29:10;;;;;;;8.40;7.60;;;13.00;98.40;;;;;;4899269;29;20226;-74
2021/04/21 08:31:38;;;;;;;12.75;8.35;;;13.10;98.60;;;;;;4899011;29;20274;-75
2021/04/21 08:34:05;;;;;;;9.27;7.82;;;13.30;99.10;;;;;;4897879;29;20215;-74
2021/04/21 08:36:31;;;;;;;8.38;7.07;;;13.40;97.60;;;;;;4897720;29;20529;-74
2021/04/21 08:38:58;;;;;;;8.10;7.30;;;13.40;96.70;;;;;;4911663;29;20294;-74
2021/04/21 08:41:26;;;;;;;6.90;6.40;;;13.50;95.60;;;;;;4916076;29;20234;-72
2021/04/21 08:43:52;;;;;;;7.32;6.63;;;13.50;95.90;;;;;;4915945;29;20269;-72
2021/04/21 08:46:19;;;;;;;7.40;6.18;;;13.60;95.80;;;;;;4910296;29;20242;-72
2021/04/21 08:48:46;;;;;;;6.17;5.57;;;13.70;95.50;;;;;;4897280;29;20210;-75
2021/04/21 08:51:15;;;;;;;7.03;6.00;;;13.80;95.60;;;;;;4897453;29;20822;-75
2021/04/21 08:53:46;;;;;;;9.63;8.00;;;13.90;94.30;;;;;;4897651;29;20889;-75
2021/04/21 08:56:17;;;;;;;8.40;7.70;;;13.80;94.90;;;;;;4896593;29;20302;-71
2021/04/21 08:58:45;;;;;;;7.97;7.27;;;13.70;96.50;;;;;;4896727;29;20471;-71
2021/04/21 09:01:12;;;;;;;10.00;7.05;;;13.70;97.00;;;;;;4896832;29;20503;-71
2021/04/21 09:03:39;;;;;;;8.55;7.75;;;13.80;97.70;;;;;;4896487;29;20270;-72
2021/04/21 09:06:07;;;;;;;10.85;7.07;;;13.80;98.00;;;;;;4903342;29;20322;-71
2021/04/21 09:08:34;;;;;;;9.23;8.33;;;13.90;98.70;;;;;;4914827;29;20234;-70
2021/04/21 09:11:00;;;;;;;10.33;7.47;;;13.90;98.50;;;;;;4915570;29;20579;-71
2021/04/21 09:13:27;;;;;;;9.45;8.32;;;14.00;98.70;;;;;;4914881;29;20525;-70
2021/04/21 09:15:53;;;;;;;9.53;8.10;;;14.00;98.90;;;;;;4914550;29;20237;-71
2021/04/21 09:18:30;;;;;;;11.27;9.13;;;14.00;98.20;;;;;;4914572;29;20537;-73
2021/04/21 09:20:57;;;;;;;9.50;7.80;;;14.10;99.10;;;;;;4903769;29;20487;-72
2021/04/21 09:23:25;;;;;;;11.37;9.07;;;14.10;99.90;;;;;;4909905;29;20497;-73
2021/04/21 09:25:54;;;;;;;10.43;9.17;;;14.20;99.90;;;;;;4915615;29;20971;-73
2021/04/21 09:28:21;;;;;;;10.40;8.90;;;14.20;99.90;;;;;;4915013;29;20841;-72
2021/04/21 09:30:53;;;;;;;11.80;10.70;;;14.30;99.90;;;;;;4915231;29;20549;-71
2021/04/21 09:33:20;;;;;;;11.43;10.37;;;14.30;99.90;;;;;;4916047;29;20480;-71
2021/04/21 09:35:47;;;;;;;10.93;9.70;;;14.40;99.90;;;;;;4916464;29;20553;-71
2021/04/21 09:38:15;;;;;;;11.70;10.70;;;14.40;99.90;;;;;;4898588;29;20879;-71
2021/04/21 09:40:45;;;;;;;13.73;12.07;;;14.40;99.90;;;;;;4897865;29;20494;-72
2021/04/21 09:43:15;;;;;;;12.37;11.00;;;14.50;99.90;;;;;;4908607;29;20487;-72
2021/04/21 09:45:43;;;;;;;12.47;11.33;;;14.70;99.90;;;;;;4914795;29;20809;-72
2021/04/21 09:48:11;;;;;;;16.03;14.30;;;14.80;99.90;;;;;;4913504;29;20467;-72
2021/04/21 09:50:38;;;;;;;20.70;17.10;;;14.80;99.90;;;;;;4915418;29;20494;-72
2021/04/21 09:53:21;;;;;;;18.50;15.83;;;14.70;99.90;;;;;;4902673;29;20567;-71
2021/04/21 09:55:59;;;;;;;18.97;17.10;;;14.60;99.90;;;;;;4906219;29;20463;-71
2021/04/21 09:58:27;;;;;;;18.07;16.30;;;14.70;99.90;;;;;;4896172;29;20470;-73
2021/04/21 10:00:53;;;;;;;17.30;15.47;;;14.80;99.90;;;;;;4895842;29;20503;-73
2021/04/21 10:03:19;;;;;;;18.93;16.17;;;14.90;99.90;;;;;;4895634;29;20467;-73
2021/04/21 10:05:45;;;;;;;18.90;16.30;;;14.80;99.90;;;;;;4895926;29;20959;-72
2021/04/21 10:08:14;;;;;;;23.03;16.57;;;14.70;99.90;;;;;;4898223;29;20463;-73
2021/04/21 10:10:41;;;;;;;22.60;19.23;;;14.60;99.90;;;;;;4900772;29;20573;-72
2021/04/21 10:13:20;;;;;;;21.30;15.67;;;14.60;99.90;;;;;;4899063;29;20491;-72
2021/04/21 10:15:48;;;;;;;21.07;14.93;;;14.60;99.90;;;;;;4899935;29;20470;-71
2021/04/21 10:18:15;;;;;;;17.40;15.60;;;14.60;99.90;;;;;;4899530;29;20617;-72
2021/04/21 10:20:42;;;;;;;16.90;15.10;;;14.70;99.90;;;;;;4899596;29;20487;-72
2021/04/21 10:23:08;;;;;;;17.63;15.83;;;14.70;99.90;;;;;;4898757;29;20474;-73
2021/04/21 10:25:35;;;;;;;16.93;15.03;;;14.70;99.90;;;;;;4899321;29;20467;-72
2021/04/21 10:28:03;;;;;;;19.27;16.30;;;14.50;99.90;;;;;;4910241;29;20494;-71
2021/04/21 10:30:30;;;;;;;20.13;15.93;;;14.70;99.90;;;;;;4902755;29;20483;-71
2021/04/21 10:32:56;;;;;;;23.57;17.43;;;14.80;99.90;;;;;;4899462;29;20471;-71
2021/04/21 10:35:22;;;;;;;21.20;16.23;;;14.90;99.90;;;;;;4899910;29;21093;-71
2021/04/21 10:37:49;;;;;;;18.97;16.87;;;15.00;99.90;;;;;;4899642;29;20467;-70
2021/04/21 10:40:25;;;;;;;20.77;16.43;;;15.00;99.90;;;;;;4898845;29;20563;-71
2021/04/21 10:42:54;;;;;;;21.20;16.90;;;14.90;99.90;;;;;;4898674;29;20467;-71
2021/04/21 10:45:24;;;;;;;20.07;16.40;;;14.70;99.90;;;;;;4900337;29;20469;-72
2021/04/21 10:47:53;;;;;;;19.23;15.57;;;14.50;99.90;;;;;;4899065;29;20850;-71
2021/04/21 10:50:40;;;;;;;20.57;16.30;;;14.40;99.90;;;;;;4899155;29;20800;-71
2021/04/21 10:53:20;;;;;;;24.20;17.33;;;14.40;99.90;;;;;;4907418;29;20570;-71
2021/04/21 10:55:46;;;;;;;18.13;15.07;;;14.50;99.90;;;;;;4908231;29;20479;-70
2021/04/21 10:58:13;;;;;;;18.27;16.20;;;14.60;99.90;;;;;;4899573;29;20860;-70
2021/04/21 11:00:44;;;;;;;20.17;15.77;;;14.80;99.90;;;;;;4905917;29;20565;-69
2021/04/21 11:03:12;;;;;;;21.53;16.57;;;14.90;99.90;;;;;;4905843;29;20467;-70
2021/04/21 11:05:48;;;;;;;16.57;14.37;;;15.00;99.90;;;;;;4903127;29;20471;-70
2021/04/21 11:08:16;;;;;;;17.30;14.67;;;15.20;99.90;;;;;;4899185;29;20523;-70
2021/04/21 11:11:04;;;;;;;18.17;14.63;;;15.30;99.90;;;;;;4907319;29;20602;-71
2021/04/21 11:13:44;;;;;;;27.23;16.90;;;15.10;99.90;;;;;;4906428;29;20471;-70
2021/04/21 11:16:38;;;;;;;21.47;16.87;;;15.10;99.90;;;;;;4899544;29;20534;-71
2021/04/21 11:19:24;;;;;;;17.80;15.83;;;15.10;99.90;;;;;;4899971;29;20960;-70
2021/04/21 11:22:26;;;;;;;18.00;14.87;;;15.00;99.90;;;;;;4917620;29;20487;-72
2021/04/21 11:25:28;;;;;;;17.80;14.77;;;14.70;99.90;;;;;;4910708;29;20485;-70
2021/04/21 11:27:55;;;;;;;19.47;15.23;;;14.60;99.90;;;;;;4907922;29;20482;-70
2021/04/21 11:31:01;;;;;;;18.40;15.43;;;14.60;99.90;;;;;;4915782;29;20537;-71
2021/04/21 11:33:55;;;;;;;16.80;14.57;;;14.50;99.90;;;;;;4909410;29;20458;-71
2021/04/21 11:36:53;;;;;;;18.63;15.43;;;14.30;99.90;;;;;;4922599;29;20470;-74
2021/04/21 11:39:55;;;;;;;18.03;15.23;;;14.20;99.90;;;;;;4918968;29;20499;-71
2021/04/21 11:42:23;;;;;;;15.80;14.20;;;14.10;99.90;;;;;;4900529;29;21039;-70
2021/04/21 11:45:22;;;;;;;15.07;13.53;;;14.00;99.90;;;;;;4907888;29;21319;-70
2021/04/21 11:47:50;;;;;;;14.07;12.63;;;13.90;99.90;;;;;;4915619;29;20490;-71
2021/04/21 11:50:31;;;;;;;16.27;12.80;;;13.80;99.90;;;;;;4916717;29;20513;-70
2021/04/21 11:53:12;;;;;;;15.40;11.90;;;13.70;99.90;;;;;;4899116;29;20448;-70
2021/04/21 11:55:40;;;;;;;15.68;11.38;;;13.60;99.90;;;;;;4902905;29;20451;-71
2021/04/21 11:58:09;;;;;;;11.13;9.90;;;13.50;99.90;;;;;;4913648;29;20227;-70
2021/04/21 12:00:38;;;;;;;12.63;9.68;;;13.40;99.90;;;;;;4904181;29;20348;-70
2021/04/21 12:03:06;;;;;;;11.63;10.45;;;13.30;99.90;;;;;;4911831;29;20545;-72
2021/04/21 12:05:35;;;;;;;12.55;9.80;;;13.30;99.90;;;;;;4912362;29;20199;-71
2021/04/21 12:08:04;;;;;;;17.02;9.55;;;13.30;99.90;;;;;;4916411;29;20318;-72
2021/04/21 12:10:33;;;;;;;14.13;10.55;;;13.20;99.90;;;;;;4917405;29;20238;-71
2021/04/21 12:13:22;;;;;;;10.90;9.55;;;13.00;99.90;;;;;;4917527;29;20227;-72
2021/04/21 12:15:51;;;;;;;8.75;7.95;;;12.80;99.90;;;;;;4905209;29;20278;-72
2021/04/21 12:18:31;;;;;;;11.05;10.05;;;12.80;99.90;;;;;;4905768;29;20217;-72
2021/04/21 12:20:57;;;;;;;10.93;9.80;;;12.80;99.90;;;;;;4916828;29;20264;-72
2021/04/21 12:23:33;;;;;;;8.77;7.93;;;12.80;99.90;;;;;;4907162;29;20222;-70
2021/04/21 12:26:01;;;;;;;6.03;5.40;;;13.00;99.90;;;;;;4907902;29;20242;-71
2021/04/21 12:28:27;;;;;;;6.60;6.10;;;13.00;99.90;;;;;;4908360;29;20699;-71
2021/04/21 12:30:55;;;;;;;7.17;6.47;;;13.10;99.90;;;;;;4903159;29;20250;-70
2021/04/21 12:33:23;;;;;;;7.40;6.13;;;13.20;99.90;;;;;;4907076;29;20477;-70
2021/04/21 12:35:56;;;;;;;6.10;5.63;;;13.30;99.90;;;;;;4914793;29;20470;-70
2021/04/21 12:38:34;;;;;;;7.97;6.30;;;13.20;99.90;;;;;;4902976;29;20820;-70
2021/04/21 12:41:02;;;;;;;9.65;5.68;;;13.20;99.90;;;;;;4907205;29;20507;-71
2021/04/21 12:43:34;;;;;;;5.57;5.10;;;13.20;99.90;;;;;;4900892;29;20207;-71
2021/04/21 12:46:20;;;;;;;5.27;4.77;;;13.30;99.90;;;;;;4913043;29;20470;-70
2021/04/21 12:48:48;;;;;;;5.40;5.00;;;13.40;99.90;;;;;;4897845;29;20463;-70
2021/04/21 12:51:20;;;;;;;7.30;4.80;;;13.40;99.90;;;;;;4912053;29;20505;-71
2021/04/21 12:53:48;;;;;;;4.00;3.70;;;13.40;99.90;;;;;;4911940;29;20474;-71
2021/04/21 12:56:14;;;;;;;2.73;2.43;;;13.50;99.90;;;;;;4901501;29;20467;-71
2021/04/21 12:58:44;;;;;;;3.10;3.00;;;13.50;99.90;;;;;;4912512;29;20542;-71
2021/04/21 13:01:17;;;;;;;4.33;2.20;;;13.60;99.90;;;;;;4913970;29;20503;-71
2021/04/21 13:04:01;;;;;;;2.17;1.97;;;13.60;99.90;;;;;;4910584;29;20460;-71
2021/04/21 13:06:34;;;;;;;4.00;1.80;;;13.70;99.90;;;;;;4908447;29;20495;-70
2021/04/21 13:09:11;;;;;;;2.13;2.00;;;13.90;99.90;;;;;;4896509;29;20463;-70
2021/04/21 13:11:39;;;;;;;3.13;2.07;;;14.00;99.90;;;;;;4908418;29;20490;-70
2021/04/21 13:14:06;;;;;;;1.93;1.83;;;14.00;99.90;;;;;;4903595;29;20522;-70
2021/04/21 13:16:35;;;;;;;3.43;2.10;;;13.90;99.90;;;;;;4907768;29;20566;-70
2021/04/21 13:19:21;;;;;;;2.40;1.90;;;13.80;99.90;;;;;;4902915;29;20552;-70
2021/04/21 13:21:59;;;;;;;3.00;2.13;;;13.60;99.90;;;;;;4914170;29;20478;-71
2021/04/21 13:24:26;;;;;;;2.40;1.90;;;13.60;99.90;;;;;;4898274;29;20488;-71
2021/04/21 13:26:53;;;;;;;3.80;2.50;;;13.60;99.90;;;;;;4895506;29;20483;-68
2021/04/21 13:29:33;;;;;;;3.23;2.43;;;13.70;99.90;;;;;;4904703;29;20470;-69
2021/04/21 13:32:10;;;;;;;4.63;2.67;;;13.70;99.90;;;;;;4899201;29;20570;-72
2021/04/21 13:34:37;;;;;;;3.37;1.60;;;13.80;99.90;;;;;;4910220;29;20470;-71
2021/04/21 13:37:03;;;;;;;2.78;1.25;;;13.70;99.90;;;;;;4923064;29;20502;-71
2021/04/21 13:39:30;;;;;;;3.53;1.40;;;13.50;99.90;;;;;;4921523;29;20214;-70
2021/04/21 13:41:57;;;;;;;1.42;1.42;;;13.30;99.90;;;;;;4915707;29;20231;-71
2021/04/21 13:44:23;;;;;;;3.80;1.80;;;13.20;99.90;;;;;;4915131;29;20572;-71
2021/04/21 13:46:49;;;;;;;2.30;1.50;;;13.30;99.90;;;;;;4914962;29;20227;-71
2021/04/21 13:49:17;;;;;;;9.50;3.60;;;13.20;99.90;;;;;;4915169;29;20211;-71
2021/04/21 13:51:43;;;;;;;1.50;1.25;;;13.00;99.90;;;;;;4896683;29;20243;-71
2021/04/21 13:54:09;;;;;;;4.88;1.42;;;12.80;99.90;;;;;;4895398;29;20247;-71
2021/04/21 13:56:37;;;;;;;5.22;1.15;;;12.80;99.90;;;;;;4895786;29;20212;-72
2021/04/21 13:59:03;;;;;;;8.52;1.27;;;12.80;98.30;;;;;;4895878;29;20271;-71
2021/04/21 14:01:31;;;;;;;3.20;1.17;;;12.80;98.00;;;;;;4895505;29;20238;-70
2021/04/21 14:03:57;;;;;;;4.10;1.63;;;12.70;98.00;;;;;;4897464;29;20639;-71
2021/04/21 14:06:23;;;;;;;5.40;2.10;;;12.50;98.70;;;;;;4914015;29;20231;-71
2021/04/21 14:08:49;;;;;;;2.90;1.75;;;12.40;98.40;;;;;;4914231;29;20218;-71
2021/04/21 14:11:15;;;;;;;6.03;1.60;;;12.40;98.30;;;;;;4915432;29;20234;-71
2021/04/21 14:13:43;;;;;;;4.15;1.85;;;12.40;97.60;;;;;;4914519;29;20210;-71
2021/04/21 14:16:09;;;;;;;2.22;2.03;;;12.50;96.60;;;;;;4914831;29;20667;-71
2021/04/21 14:18:35;;;;;;;3.00;1.95;;;12.50;96.40;;;;;;4909921;29;20211;-71
2021/04/21 14:21:01;;;;;;;5.72;2.35;;;12.60;96.90;;;;;;4895655;29;20235;-72
2021/04/21 14:23:27;;;;;;;4.00;1.67;;;12.60;96.60;;;;;;4894859;29;20633;-71
2021/04/21 14:25:54;;;;;;;2.30;2.00;;;12.50;94.90;;;;;;4895505;29;20203;-72
2021/04/21 14:28:20;;;;;;;5.93;2.60;;;12.40;94.10;;;;;;4895205;29;20231;-71
2021/04/21 14:30:47;;;;;;;6.28;2.40;;;12.30;94.50;;;;;;4895672;29;20227;-74
2021/04/21 14:33:13;;;;;;;2.95;2.28;;;12.20;95.20;;;;;;4901957;29;20229;-71
2021/04/21 14:35:40;;;;;;;4.22;2.60;;;12.20;95.20;;;;;;4914346;29;20213;-71
2021/04/21 14:38:06;;;;;;;4.55;2.47;;;12.20;95.50;;;;;;4914195;29;20218;-74
2021/04/21 14:40:33;;;;;;;3.15;2.17;;;12.20;95.30;;;;;;4914462;29;20245;-74
2021/04/21 14:42:59;;;;;;;2.42;2.20;;;12.30;96.00;;;;;;4913497;29;20210;-74
2021/04/21 14:45:25;;;;;;;5.20;2.30;;;12.20;95.40;;;;;;4914525;29;20293;-74
2021/04/21 14:47:52;;;;;;;2.03;1.80;;;12.20;95.40;;;;;;4904584;29;20577;-74
2021/04/21 14:50:19;;;;;;;4.65;2.30;;;12.20;93.00;;;;;;4895231;29;20222;-74
2021/04/21 14:52:46;;;;;;;4.07;2.85;;;12.10;92.80;;;;;;4895209;29;20219;-74
2021/04/21 14:55:13;;;;;;;3.90;2.00;;;12.10;93.50;;;;;;4897960;29;20215;-74
2021/04/21 14:57:40;;;;;;;3.80;2.83;;;12.10;93.90;;;;;;4898534;29;20223;-74
2021/04/21 15:00:08;;;;;;;2.53;2.00;;;12.10;94.40;;;;;;4898752;29;20252;-74
2021/04/21 15:02:34;;;;;;;2.95;1.70;;;12.10;94.40;;;;;;4898916;29;20680;-74
2021/04/21 15:05:01;;;;;;;5.93;2.67;;;12.00;94.90;;;;;;4898524;29;20274;-74
2021/04/21 15:07:27;;;;;;;3.00;1.92;;;11.90;95.50;;;;;;4898923;29;20231;-74
2021/04/21 15:09:53;;;;;;;2.47;1.70;;;11.90;92.00;;;;;;4898620;29;20215;-74
2021/04/21 15:12:20;;;;;;;1.90;1.75;;;11.90;91.60;;;;;;4898109;29;20246;-74
2021/04/21 15:14:46;;;;;;;1.95;1.85;;;11.80;90.80;;;;;;4899118;29;20222;-74
2021/04/21 15:17:16;;;;;;;2.05;1.85;;;11.80;90.40;;;;;;4914810;29;20206;-74
2021/04/21 15:19:44;;;;;;;4.40;1.92;;;11.70;90.70;;;;;;4918435;29;20624;-74
2021/04/21 15:22:12;;;;;;;4.97;2.05;;;11.80;92.20;;;;;;4918414;29;20261;-74
2021/04/21 15:24:38;;;;;;;1.90;1.80;;;11.60;92.10;;;;;;4918036;29;20206;-74
2021/04/21 15:27:06;;;;;;;4.63;2.33;;;11.60;93.30;;;;;;4918208;29;20273;-74
2021/04/21 15:29:32;;;;;;;2.38;2.03;;;11.60;94.30;;;;;;4903305;29;20222;-75
2021/04/21 15:32:00;;;;;;;7.57;2.33;;;11.70;95.10;;;;;;4917592;29;20234;-74
2021/04/21 15:34:27;;;;;;;3.25;1.95;;;11.60;94.70;;;;;;4917597;29;20210;-75
2021/04/21 15:36:53;;;;;;;2.67;1.20;;;11.50;94.80;;;;;;4917917;29;20202;-75
2021/04/21 15:39:21;;;;;;;1.95;1.88;;;11.50;93.40;;;;;;4917145;29;20218;-71
2021/04/21 15:41:48;;;;;;;3.45;1.33;;;11.40;94.00;;;;;;4916251;29;20381;-72
2021/04/21 15:44:15;;;;;;;1.70;1.60;;;11.40;92.80;;;;;;4916541;29;20233;-72
2021/04/21 15:46:42;;;;;;;2.70;1.20;;;11.50;92.30;;;;;;4916893;29;20226;-72
2021/04/21 15:49:15;;;;;;;2.38;1.02;;;11.50;91.70;;;;;;4917583;29;20207;-72
2021/04/21 15:51:42;;;;;;;0.90;0.90;;;11.50;91.60;;;;;;4917461;29;20241;-72
2021/04/21 15:54:08;;;;;;;1.10;0.88;;;11.50;92.30;;;;;;4916940;29;20211;-72
2021/04/21 15:56:37;;;;;;;1.50;1.00;;;11.50;92.30;;;;;;4916278;29;20199;-71
2021/04/21 15:59:04;;;;;;;1.75;1.05;;;11.50;92.00;;;;;;4902916;29;20214;-72
2021/04/21 16:01:30;;;;;;;6.10;1.20;;;11.40;92.10;;;;;;4899622;29;20274;-72
2021/04/21 16:03:59;;;;;;;3.25;1.55;;;11.50;92.80;;;;;;4898070;29;20587;-71
2021/04/21 16:06:25;;;;;;;3.45;1.35;;;11.50;93.40;;;;;;4897442;29;20211;-71
2021/04/21 16:08:52;;;;;;;1.73;1.63;;;11.60;94.40;;;;;;4910733;29;20213;-72
2021/04/21 16:11:18;;;;;;;0.73;0.70;;;11.50;95.10;;;;;;4917246;29;20257;-71
2021/04/21 16:13:46;;;;;;;2.75;0.82;;;11.30;94.00;;;;;;4916227;29;20229;-72
2021/04/21 16:16:12;;;;;;;0.93;0.82;;;11.10;92.70;;;;;;4916612;29;20266;-72
2021/04/21 16:18:39;;;;;;;1.95;1.45;;;10.90;91.40;;;;;;4916138;29;20253;-72
2021/04/21 16:21:05;;;;;;;0.63;0.63;;;10.90;91.30;;;;;;4916039;29;20238;-71
2021/04/21 16:23:32;;;;;;;3.90;0.82;;;10.90;91.30;;;;;;4898548;29;20215;-72
2021/04/21 16:25:59;;;;;;;2.05;0.80;;;10.90;91.50;;;;;;4898881;29;20743;-73
2021/04/21 16:28:25;;;;;;;1.33;0.82;;;10.90;92.40;;;;;;4915011;29;20237;-71
2021/04/21 16:30:53;;;;;;;1.30;0.68;;;10.80;92.40;;;;;;4908577;29;20234;-72
2021/04/21 16:33:19;;;;;;;3.13;1.02;;;10.70;92.20;;;;;;4915592;29;20214;-72
2021/04/21 16:35:46;;;;;;;3.70;1.20;;;10.60;92.30;;;;;;4907325;29;20654;-71
2021/04/21 16:38:12;;;;;;;1.45;0.90;;;10.50;92.60;;;;;;4898377;29;20203;-72
2021/04/21 16:40:38;;;;;;;1.05;0.75;;;10.50;92.00;;;;;;4910815;29;20329;-73
2021/04/21 16:43:05;;;;;;;1.77;1.67;;;10.50;91.90;;;;;;4910133;29;20207;-72
2021/04/21 16:45:31;;;;;;;6.05;1.00;;;10.40;92.50;;;;;;4897623;29;20211;-71
2021/04/21 16:47:58;;;;;;;3.03;0.90;;;10.40;92.90;;;;;;4907362;29;20349;-72
2021/04/21 16:50:26;;;;;;;3.10;1.50;;;10.40;92.30;;;;;;4913399;29;20214;-73
2021/04/21 16:52:52;;;;;;;1.20;1.20;;;10.30;92.60;;;;;;4900460;29;20218;-73
2021/04/21 16:55:19;;;;;;;1.02;1.00;;;10.30;93.40;;;;;;4896638;29;20207;-74
2021/04/21 16:57:47;;;;;;;1.95;1.23;;;10.30;93.70;;;;;;4905314;29;20206;-73
2021/04/21 17:00:17;;;;;;;7.45;1.13;;;10.30;94.30;;;;;;4915735;29;20222;-72
2021/04/21 17:02:45;;;;;;;4.55;1.20;;;10.30;94.80;;;;;;4907566;29;20206;-74
2021/04/21 17:05:15;;;;;;;1.67;1.25;;;10.20;94.60;;;;;;4902653;29;20202;-73